Time,TemperatureF,DewpointF,PressureIn,WindDirection,WindDirectionDegrees,WindSpeedMPH,WindSpeedGustMPH,Humidity,HourlyPrecipIn,Conditions,Clouds,dailyrainin,SoftwareType,DateUTC
2013-01-18 00:06:00,31.6,21.9,30.40,North,355,2.0,11.0,67,0.00,,,0.00,Wunderground v.1.15,2013-01-18 05:06:00,
2013-01-18 00:12:00,31.6,21.2,30.40,NNW,346,2.0,3.0,65,0.00,,,0.00,Wunderground v.1.15,2013-01-18 05:12:00,
2013-01-18 00:16:00,31.5,22.1,30.41,NNW,346,2.0,3.0,68,0.00,,,0.00,Wunderground v.1.15,2013-01-18 05:16:00,
2013-01-18 00:26:00,31.2,21.2,30.41,NNW,347,0.0,1.0,66,0.00,,,0.00,Wunderground v.1.15,2013-01-18 05:26:00,
2013-01-18 00:31:00,31.0,21.7,30.42,NNW,347,0.0,0.0,68,0.00,,,0.00,Wunderground v.1.15,2013-01-18 05:31:00,
2013-01-18 00:41:00,31.0,21.3,30.42,NNW,347,0.0,0.0,67,0.00,,,0.00,Wunderground v.1.15,2013-01-18 05:41:00,
2013-01-18 00:47:00,30.9,22.3,30.42,NNW,347,0.0,0.0,70,0.00,,,0.00,Wunderground v.1.15,2013-01-18 05:47:00,
2013-01-18 00:57:00,30.1,22.2,30.42,NNW,347,0.0,0.0,72,0.00,,,0.00,Wunderground v.1.15,2013-01-18 05:57:00,
2013-01-18 01:06:00,29.9,22.0,30.42,NNW,347,0.0,11.0,72,0.00,,,0.00,Wunderground v.1.15,2013-01-18 06:06:00,
2013-01-18 01:11:00,30.0,22.1,30.42,NNW,347,0.0,11.0,72,0.00,,,0.00,Wunderground v.1.15,2013-01-18 06:11:00,
2013-01-18 01:21:00,29.6,22.0,30.43,NNW,347,0.0,11.0,73,0.00,,,0.00,Wunderground v.1.15,2013-01-18 06:21:00,
2013-01-18 01:27:00,29.3,21.7,30.43,NNW,347,0.0,11.0,73,0.00,,,0.00,Wunderground v.1.15,2013-01-18 06:27:00,
2013-01-18 01:37:00,29.1,23.1,30.43,NNW,347,0.0,11.0,78,0.00,,,0.00,Wunderground v.1.15,2013-01-18 06:37:00,
2013-01-18 01:46:00,28.7,23.9,30.44,NNW,347,0.0,11.0,82,0.00,,,0.00,Wunderground v.1.15,2013-01-18 06:46:00,
2013-01-18 01:56:00,28.2,23.4,30.44,NNW,347,0.0,11.0,82,0.00,,,0.00,Wunderground v.1.15,2013-01-18 06:56:00,
2013-01-18 02:06:00,28.4,22.7,30.45,NNW,347,1.0,11.0,79,0.00,,,0.00,Wunderground v.1.15,2013-01-18 07:06:00,
2013-01-18 02:11:00,28.7,22.1,30.45,NNW,347,2.0,2.0,76,0.00,,,0.00,Wunderground v.1.15,2013-01-18 07:11:00,
2013-01-18 02:21:00,28.7,22.1,30.45,NNW,347,0.0,0.0,76,0.00,,,0.00,Wunderground v.1.15,2013-01-18 07:21:00,
2013-01-18 02:31:00,28.4,22.1,30.45,NNW,347,1.0,3.0,77,0.00,,,0.00,Wunderground v.1.15,2013-01-18 07:31:00,
2013-01-18 02:41:00,28.4,21.2,30.45,NNW,348,1.0,1.0,74,0.00,,,0.00,Wunderground v.1.15,2013-01-18 07:41:00,
2013-01-18 02:46:00,28.5,20.6,30.46,NNW,348,0.0,1.0,72,0.00,,,0.00,Wunderground v.1.15,2013-01-18 07:46:00,
2013-01-18 02:52:00,28.7,20.1,30.46,NNW,348,1.0,1.0,70,0.00,,,0.00,Wunderground v.1.15,2013-01-18 07:52:00,
2013-01-18 03:01:00,28.7,19.8,30.46,NNW,348,0.0,6.0,69,0.00,,,0.00,Wunderground v.1.15,2013-01-18 08:01:00,
2013-01-18 03:06:00,28.8,19.6,30.46,NNW,348,0.0,6.0,68,0.00,,,0.00,Wunderground v.1.15,2013-01-18 08:06:00,
2013-01-18 03:17:00,28.7,19.5,30.47,NNW,348,0.0,6.0,68,0.00,,,0.00,Wunderground v.1.15,2013-01-18 08:17:00,
2013-01-18 03:26:00,28.5,19.3,30.47,NNW,348,1.0,6.0,68,0.00,,,0.00,Wunderground v.1.15,2013-01-18 08:26:00,
2013-01-18 03:31:00,28.4,19.2,30.48,NNW,348,0.0,6.0,68,0.00,,,0.00,Wunderground v.1.15,2013-01-18 08:31:00,
2013-01-18 03:41:00,27.8,19.3,30.48,NNW,348,0.0,6.0,70,0.00,,,0.00,Wunderground v.1.15,2013-01-18 08:41:00,
2013-01-18 03:52:00,27.2,18.7,30.48,NNW,348,0.0,6.0,70,0.00,,,0.00,Wunderground v.1.15,2013-01-18 08:52:00,
2013-01-18 04:01:00,26.7,19.2,30.48,NNW,348,0.0,6.0,73,0.00,,,0.00,Wunderground v.1.15,2013-01-18 09:01:00,
2013-01-18 04:06:00,26.7,20.8,30.48,NNW,348,0.0,6.0,78,0.00,,,0.00,Wunderground v.1.15,2013-01-18 09:06:00,
2013-01-18 04:16:00,26.6,21.8,30.48,NNW,348,0.0,0.0,82,0.00,,,0.00,Wunderground v.1.15,2013-01-18 09:16:00,
2013-01-18 04:21:00,26.3,21.6,30.48,NNW,348,0.0,0.0,82,0.00,,,0.00,Wunderground v.1.15,2013-01-18 09:21:00,
2013-01-18 04:31:00,25.9,21.4,30.48,NNW,348,0.0,0.0,83,0.00,,,0.00,Wunderground v.1.15,2013-01-18 09:31:00,
2013-01-18 04:41:00,25.6,21.4,30.48,NNW,348,0.0,0.0,84,0.00,,,0.00,Wunderground v.1.15,2013-01-18 09:41:00,
2013-01-18 04:46:00,25.6,21.7,30.48,NNW,348,0.0,0.0,85,0.00,,,0.00,Wunderground v.1.15,2013-01-18 09:46:00,
2013-01-18 04:56:00,25.4,22.1,30.48,NNW,348,0.0,0.0,87,0.00,,,0.00,Wunderground v.1.15,2013-01-18 09:56:00,
2013-01-18 05:01:00,25.3,22.0,30.48,NNW,348,0.0,5.0,87,0.00,,,0.00,Wunderground v.1.15,2013-01-18 10:01:00,
2013-01-18 05:12:00,25.1,21.8,30.48,NNW,348,0.0,5.0,87,0.00,,,0.00,Wunderground v.1.15,2013-01-18 10:12:00,
2013-01-18 05:22:00,24.8,21.5,30.48,NNW,348,0.0,5.0,87,0.00,,,0.00,Wunderground v.1.15,2013-01-18 10:22:00,
2013-01-18 05:32:00,24.5,21.5,30.49,NNW,348,1.0,5.0,88,0.00,,,0.00,Wunderground v.1.15,2013-01-18 10:32:00,
2013-01-18 05:41:00,24.8,21.5,30.49,NNW,348,2.0,5.0,87,0.00,,,0.00,Wunderground v.1.15,2013-01-18 10:41:00,
2013-01-18 05:51:00,25.1,21.2,30.49,NNW,348,0.0,5.0,85,0.00,,,0.00,Wunderground v.1.15,2013-01-18 10:51:00,
2013-01-18 05:57:00,25.0,20.8,30.49,NNW,348,0.0,5.0,84,0.00,,,0.00,Wunderground v.1.15,2013-01-18 10:57:00,
2013-01-18 06:02:00,24.8,20.4,30.49,NNW,348,0.0,5.0,83,0.00,,,0.00,Wunderground v.1.15,2013-01-18 11:02:00,
2013-01-18 06:11:00,24.5,20.4,30.49,NNW,348,0.0,0.0,84,0.00,,,0.00,Wunderground v.1.15,2013-01-18 11:11:00,
2013-01-18 06:17:00,24.4,20.3,30.48,NNW,348,0.0,0.0,84,0.00,,,0.00,Wunderground v.1.15,2013-01-18 11:17:00,
2013-01-18 06:26:00,24.2,20.1,30.48,NNW,348,0.0,0.0,84,0.00,,,0.00,Wunderground v.1.15,2013-01-18 11:26:00,
2013-01-18 06:32:00,24.2,20.1,30.49,NNW,348,0.0,0.0,84,0.00,,,0.00,Wunderground v.1.15,2013-01-18 11:32:00,
2013-01-18 06:41:00,23.9,20.0,30.49,NNW,348,0.0,0.0,85,0.00,,,0.00,Wunderground v.1.15,2013-01-18 11:41:00,
2013-01-18 06:46:00,23.8,19.9,30.49,NNW,348,0.0,0.0,85,0.00,,,0.00,Wunderground v.1.15,2013-01-18 11:46:00,
2013-01-18 06:51:00,23.6,19.8,30.49,NNW,348,0.0,0.0,85,0.00,,,0.00,Wunderground v.1.15,2013-01-18 11:51:00,
2013-01-18 07:01:00,23.5,19.9,30.49,NNW,348,0.0,4.0,86,0.00,,,0.00,Wunderground v.1.15,2013-01-18 12:01:00,
2013-01-18 07:11:00,23.3,19.5,30.49,NNW,348,0.0,4.0,85,0.00,,,0.00,Wunderground v.1.15,2013-01-18 12:11:00,
2013-01-18 07:16:00,23.3,19.7,30.48,NNW,348,0.0,4.0,86,0.00,,,0.00,Wunderground v.1.15,2013-01-18 12:16:00,
2013-01-18 07:26:00,23.1,19.5,30.48,NNW,348,0.0,4.0,86,0.00,,,0.00,Wunderground v.1.15,2013-01-18 12:26:00,
2013-01-18 07:31:00,23.1,19.5,30.48,NNW,348,0.0,4.0,86,0.00,,,0.00,Wunderground v.1.15,2013-01-18 12:31:00,
2013-01-18 07:42:00,23.3,19.5,30.48,NNW,348,0.0,4.0,85,0.00,,,0.00,Wunderground v.1.15,2013-01-18 12:42:00,
2013-01-18 07:51:00,23.0,18.9,30.48,NNW,348,0.0,4.0,84,0.00,,,0.00,Wunderground v.1.15,2013-01-18 12:51:00,
2013-01-18 07:57:00,22.8,18.7,30.48,NNW,348,0.0,4.0,84,0.00,,,0.00,Wunderground v.1.15,2013-01-18 12:57:00,
2013-01-18 08:06:00,22.8,18.7,30.48,NNW,348,0.0,4.0,84,0.00,,,0.00,Wunderground v.1.15,2013-01-18 13:06:00,
2013-01-18 08:11:00,22.8,18.7,30.48,NNW,348,0.0,0.0,84,0.00,,,0.00,Wunderground v.1.15,2013-01-18 13:11:00,
2013-01-18 08:21:00,22.8,19.0,30.48,NNW,348,0.0,0.0,85,0.00,,,0.00,Wunderground v.1.15,2013-01-18 13:21:00,
2013-01-18 08:26:00,23.1,19.5,30.48,NNW,348,0.0,0.0,86,0.00,,,0.00,Wunderground v.1.15,2013-01-18 13:26:00,
2013-01-18 08:36:00,23.5,19.9,30.49,NNW,348,0.0,0.0,86,0.00,,,0.00,Wunderground v.1.15,2013-01-18 13:36:00,
2013-01-18 08:41:00,23.8,20.5,30.49,NNW,348,0.0,0.0,87,0.00,,,0.00,Wunderground v.1.15,2013-01-18 13:41:00,
2013-01-18 08:47:00,24.4,21.1,30.50,NNW,348,0.0,0.0,87,0.00,,,0.00,Wunderground v.1.15,2013-01-18 13:47:00,
2013-01-18 08:56:00,25.6,21.2,30.50,NNW,348,0.0,0.0,83,0.00,,,0.00,Wunderground v.1.15,2013-01-18 13:56:00,
2013-01-18 09:01:00,26.2,21.5,30.51,NNW,348,0.0,0.0,82,0.00,,,0.00,Wunderground v.1.15,2013-01-18 14:01:00,
2013-01-18 09:11:00,27.2,21.2,30.51,NNW,348,0.0,0.0,78,0.00,,,0.00,Wunderground v.1.15,2013-01-18 14:11:00,
2013-01-18 09:17:00,27.6,20.1,30.51,NNW,348,0.0,0.0,73,0.00,,,0.00,Wunderground v.1.15,2013-01-18 14:17:00,
2013-01-18 09:26:00,28.5,19.3,30.51,North,349,0.0,0.0,68,0.00,,,0.00,Wunderground v.1.15,2013-01-18 14:26:00,
2013-01-18 09:31:00,28.4,17.8,30.52,SE,138,1.0,2.0,64,0.00,,,0.00,Wunderground v.1.15,2013-01-18 14:31:00,
2013-01-18 09:41:00,28.8,19.2,30.52,SE,126,2.0,3.0,67,0.00,,,0.00,Wunderground v.1.15,2013-01-18 14:41:00,
2013-01-18 09:52:00,29.3,18.6,30.52,SE,129,2.0,2.0,64,0.00,,,0.00,Wunderground v.1.15,2013-01-18 14:52:00,
2013-01-18 10:01:00,29.9,18.8,30.52,SE,142,1.0,1.0,63,0.00,,,0.00,Wunderground v.1.15,2013-01-18 15:01:00,
2013-01-18 10:07:00,30.0,18.9,30.52,SSE,150,2.0,2.0,63,0.00,,,0.00,Wunderground v.1.15,2013-01-18 15:07:00,
2013-01-18 10:16:00,30.7,19.6,30.53,SSE,165,1.0,2.0,63,0.00,,,0.00,Wunderground v.1.15,2013-01-18 15:16:00,
2013-01-18 10:21:00,30.7,18.8,30.53,SE,126,1.0,1.0,61,0.00,,,0.00,Wunderground v.1.15,2013-01-18 15:21:00,
2013-01-18 10:32:00,31.6,19.7,30.53,East,101,0.0,0.0,61,0.00,,,0.00,Wunderground v.1.15,2013-01-18 15:32:00,
2013-01-18 10:41:00,31.9,18.8,30.53,SE,126,0.0,0.0,58,0.00,,,0.00,Wunderground v.1.15,2013-01-18 15:41:00,
2013-01-18 10:47:00,31.6,19.3,30.53,SE,145,1.0,1.0,60,0.00,,,0.00,Wunderground v.1.15,2013-01-18 15:47:00,
2013-01-18 10:56:00,32.8,19.6,30.53,SSE,157,0.0,0.0,58,0.00,,,0.00,Wunderground v.1.15,2013-01-18 15:56:00,
2013-01-18 11:06:00,33.7,20.1,30.53,East,90,0.0,6.0,57,0.00,,,0.00,Wunderground v.1.15,2013-01-18 16:06:00,
2013-01-18 11:16:00,33.7,19.7,30.53,SSE,159,1.0,6.0,56,0.00,,,0.00,Wunderground v.1.15,2013-01-18 16:16:00,
2013-01-18 11:21:00,34.0,20.3,30.53,East,101,1.0,1.0,57,0.00,,,0.00,Wunderground v.1.15,2013-01-18 16:21:00,
2013-01-18 11:31:00,34.1,19.6,30.53,South,174,1.0,1.0,55,0.00,,,0.00,Wunderground v.1.15,2013-01-18 16:31:00,
2013-01-18 11:37:00,34.7,20.2,30.53,South,185,0.0,3.0,55,0.00,,,0.00,Wunderground v.1.15,2013-01-18 16:37:00,
2013-01-18 11:46:00,35.0,19.1,30.53,South,173,1.0,6.0,52,0.00,,,0.00,Wunderground v.1.15,2013-01-18 16:46:00,
2013-01-18 11:51:00,35.2,20.6,30.53,SSW,213,1.0,6.0,55,0.00,,,0.00,Wunderground v.1.15,2013-01-18 16:51:00,
2013-01-18 12:01:00,35.6,19.2,30.52,SSW,193,1.0,1.0,51,0.00,,,0.00,Wunderground v.1.15,2013-01-18 17:01:00,
2013-01-18 12:11:00,36.4,20.9,30.52,South,177,1.0,3.0,53,0.00,,,0.00,Wunderground v.1.15,2013-01-18 17:11:00,
2013-01-18 12:21:00,36.4,19.5,30.51,SW,222,1.0,1.0,50,0.00,,,0.00,Wunderground v.1.15,2013-01-18 17:21:00,
2013-01-18 12:26:00,36.9,21.3,30.51,SW,218,1.0,3.0,53,0.00,,,0.00,Wunderground v.1.15,2013-01-18 17:26:00,
2013-01-18 12:36:00,36.8,19.4,30.50,SW,224,2.0,2.0,49,0.00,,,0.00,Wunderground v.1.15,2013-01-18 17:36:00,
2013-01-18 12:46:00,38.1,21.5,30.49,WSW,239,2.0,2.0,51,0.00,,,0.00,Wunderground v.1.15,2013-01-18 17:46:00,
2013-01-18 12:52:00,37.9,20.9,30.49,SSW,197,2.0,3.0,50,0.00,,,0.00,Wunderground v.1.15,2013-01-18 17:52:00,
2013-01-18 13:01:00,38.6,23.4,30.48,South,171,2.0,7.0,54,0.00,,,0.00,Wunderground v.1.15,2013-01-18 18:01:00,
2013-01-18 13:06:00,38.5,20.5,30.48,SSW,196,3.0,7.0,48,0.00,,,0.00,Wunderground v.1.15,2013-01-18 18:06:00,
2013-01-18 13:16:00,38.5,21.0,30.47,SW,217,2.0,7.0,49,0.00,,,0.00,Wunderground v.1.15,2013-01-18 18:16:00,
2013-01-18 13:21:00,39.4,23.2,30.47,South,178,3.0,7.0,52,0.00,,,0.00,Wunderground v.1.15,2013-01-18 18:21:00,
2013-01-18 13:26:00,39.1,22.5,30.47,SSW,194,4.0,7.0,51,0.00,,,0.00,Wunderground v.1.15,2013-01-18 18:26:00,
2013-01-18 13:36:00,39.5,22.8,30.46,SSE,159,4.0,7.0,51,0.00,,,0.00,Wunderground v.1.15,2013-01-18 18:36:00,
2013-01-18 13:41:00,39.8,22.2,30.46,SSE,163,5.0,7.0,49,0.00,,,0.00,Wunderground v.1.15,2013-01-18 18:41:00,
2013-01-18 13:47:00,39.8,22.2,30.45,SW,217,6.0,7.0,49,0.00,,,0.00,Wunderground v.1.15,2013-01-18 18:47:00,
2013-01-18 13:57:00,40.1,22.4,30.45,South,178,5.0,7.0,49,0.00,,,0.00,Wunderground v.1.15,2013-01-18 18:57:00,
2013-01-18 14:06:00,40.7,24.0,30.45,SSW,195,5.0,7.0,51,0.00,,,0.00,Wunderground v.1.15,2013-01-18 19:06:00,
2013-01-18 14:17:00,41.2,23.0,30.45,SSW,196,5.0,7.0,48,0.00,,,0.00,Wunderground v.1.15,2013-01-18 19:17:00,
2013-01-18 14:27:00,41.5,23.2,30.45,SSE,165,5.0,10.0,48,0.00,,,0.00,Wunderground v.1.15,2013-01-18 19:27:00,
2013-01-18 14:36:00,41.8,24.5,30.44,SSE,163,6.0,6.0,50,0.00,,,0.00,Wunderground v.1.15,2013-01-18 19:36:00,
2013-01-18 14:42:00,41.8,23.0,30.44,SSE,161,5.0,5.0,47,0.00,,,0.00,Wunderground v.1.15,2013-01-18 19:42:00,
2013-01-18 14:51:00,42.2,23.9,30.44,SSW,198,5.0,7.0,48,0.00,,,0.00,Wunderground v.1.15,2013-01-18 19:51:00,
2013-01-18 14:56:00,42.5,24.2,30.44,SSW,205,6.0,7.0,48,0.00,,,0.00,Wunderground v.1.15,2013-01-18 19:56:00,
2013-01-18 15:06:00,43.1,24.2,30.43,SSE,163,4.0,11.0,47,0.00,,,0.00,Wunderground v.1.15,2013-01-18 20:06:00,
2013-01-18 15:11:00,43.2,23.3,30.43,SSW,206,4.0,4.0,45,0.00,,,0.00,Wunderground v.1.15,2013-01-18 20:11:00,
2013-01-18 15:22:00,43.2,24.8,30.43,South,187,6.0,11.0,48,0.00,,,0.00,Wunderground v.1.15,2013-01-18 20:22:00,
2013-01-18 15:32:00,42.8,24.4,30.42,South,189,7.0,11.0,48,0.00,,,0.00,Wunderground v.1.15,2013-01-18 20:32:00,
2013-01-18 15:37:00,42.5,23.7,30.42,SSE,161,7.0,11.0,47,0.00,,,0.00,Wunderground v.1.15,2013-01-18 20:37:00,
2013-01-18 15:46:00,42.9,23.5,30.42,SSW,202,7.0,11.0,46,0.00,,,0.00,Wunderground v.1.15,2013-01-18 20:46:00,
2013-01-18 15:56:00,42.9,23.5,30.42,SSE,155,8.0,11.0,46,0.00,,,0.00,Wunderground v.1.15,2013-01-18 20:56:00,
2013-01-18 16:01:00,43.1,23.2,30.41,South,191,8.0,11.0,45,0.00,,,0.00,Wunderground v.1.15,2013-01-18 21:01:00,
2013-01-18 16:07:00,43.2,23.3,30.41,SSW,194,7.0,11.0,45,0.00,,,0.00,Wunderground v.1.15,2013-01-18 21:07:00,
2013-01-18 16:16:00,43.4,23.4,30.40,South,184,7.0,10.0,45,0.00,,,0.00,Wunderground v.1.15,2013-01-18 21:16:00,
2013-01-18 16:22:00,43.2,23.3,30.40,South,173,7.0,7.0,45,0.00,,,0.00,Wunderground v.1.15,2013-01-18 21:22:00,
2013-01-18 16:31:00,43.2,23.3,30.40,South,178,7.0,7.0,45,0.00,,,0.00,Wunderground v.1.15,2013-01-18 21:31:00,
2013-01-18 16:41:00,43.4,25.0,30.40,SSW,199,5.0,5.0,48,0.00,,,0.00,Wunderground v.1.15,2013-01-18 21:41:00,
2013-01-18 16:46:00,43.2,24.8,30.40,South,180,5.0,5.0,48,0.00,,,0.00,Wunderground v.1.15,2013-01-18 21:46:00,
2013-01-18 16:56:00,43.1,24.2,30.40,South,180,6.0,9.0,47,0.00,,,0.00,Wunderground v.1.15,2013-01-18 21:56:00,
2013-01-18 17:01:00,42.9,24.0,30.39,South,177,7.0,14.0,47,0.00,,,0.00,Wunderground v.1.15,2013-01-18 22:01:00,
2013-01-18 17:06:00,42.8,23.9,30.39,South,186,7.0,14.0,47,0.00,,,0.00,Wunderground v.1.15,2013-01-18 22:06:00,
2013-01-18 17:11:00,42.7,24.4,30.39,South,173,6.0,6.0,48,0.00,,,0.00,Wunderground v.1.15,2013-01-18 22:11:00,
2013-01-18 17:21:00,42.4,24.1,30.39,SSE,166,6.0,6.0,48,0.00,,,0.00,Wunderground v.1.15,2013-01-18 22:21:00,
2013-01-18 17:26:00,41.9,24.1,30.39,South,174,6.0,14.0,49,0.00,,,0.00,Wunderground v.1.15,2013-01-18 22:26:00,
2013-01-18 17:37:00,41.8,24.5,30.38,South,183,6.0,14.0,50,0.00,,,0.00,Wunderground v.1.15,2013-01-18 22:37:00,
2013-01-18 17:46:00,41.2,24.4,30.37,SSE,164,5.0,8.0,51,0.00,,,0.00,Wunderground v.1.15,2013-01-18 22:46:00,
2013-01-18 17:52:00,41.2,24.4,30.37,South,175,5.0,14.0,51,0.00,,,0.00,Wunderground v.1.15,2013-01-18 22:52:00,
2013-01-18 18:01:00,40.8,24.5,30.37,South,182,5.0,14.0,52,0.00,,,0.00,Wunderground v.1.15,2013-01-18 23:01:00,
2013-01-18 18:12:00,40.2,24.4,30.37,South,178,6.0,6.0,53,0.00,,,0.00,Wunderground v.1.15,2013-01-18 23:12:00,
2013-01-18 18:22:00,40.1,24.8,30.37,South,182,6.0,6.0,54,0.00,,,0.00,Wunderground v.1.15,2013-01-18 23:22:00,
2013-01-18 18:27:00,40.2,24.4,30.37,South,183,6.0,6.0,53,0.00,,,0.00,Wunderground v.1.15,2013-01-18 23:27:00,
2013-01-18 18:36:00,39.9,24.6,30.36,South,188,6.0,6.0,54,0.00,,,0.00,Wunderground v.1.15,2013-01-18 23:36:00,
2013-01-18 18:42:00,40.1,24.8,30.36,South,176,6.0,9.0,54,0.00,,,0.00,Wunderground v.1.15,2013-01-18 23:42:00,
2013-01-18 18:51:00,40.1,24.8,30.36,SSW,192,6.0,6.0,54,0.00,,,0.00,Wunderground v.1.15,2013-01-18 23:51:00,
2013-01-18 18:56:00,39.8,24.9,30.36,SSW,192,6.0,6.0,55,0.00,,,0.00,Wunderground v.1.15,2013-01-18 23:56:00,
2013-01-18 19:06:00,39.9,25.0,30.36,South,184,6.0,13.0,55,0.00,,,0.00,Wunderground v.1.15,2013-01-19 00:06:00,
2013-01-18 19:16:00,39.8,24.9,30.35,South,177,6.0,13.0,55,0.00,,,0.00,Wunderground v.1.15,2013-01-19 00:16:00,
2013-01-18 19:21:00,39.5,24.7,30.35,South,190,5.0,5.0,55,0.00,,,0.00,Wunderground v.1.15,2013-01-19 00:21:00,
2013-01-18 19:31:00,39.4,25.0,30.34,South,188,5.0,13.0,56,0.00,,,0.00,Wunderground v.1.15,2013-01-19 00:31:00,
2013-01-18 19:36:00,39.5,25.1,30.34,South,188,5.0,13.0,56,0.00,,,0.00,Wunderground v.1.15,2013-01-19 00:36:00,
2013-01-18 19:47:00,39.1,25.1,30.35,South,188,4.0,13.0,57,0.00,,,0.00,Wunderground v.1.15,2013-01-19 00:47:00,
2013-01-18 19:56:00,38.2,25.1,30.35,South,188,3.0,13.0,59,0.00,,,0.00,Wunderground v.1.15,2013-01-19 00:56:00,
2013-01-18 20:01:00,38.1,25.4,30.35,SSW,193,4.0,13.0,60,0.00,,,0.00,Wunderground v.1.15,2013-01-19 01:01:00,
2013-01-18 20:06:00,38.4,25.3,30.35,South,185,3.0,13.0,59,0.00,,,0.00,Wunderground v.1.15,2013-01-19 01:06:00,
2013-01-18 20:17:00,37.8,25.1,30.34,South,186,2.0,3.0,60,0.00,,,0.00,Wunderground v.1.15,2013-01-19 01:17:00,
2013-01-18 20:26:00,37.8,25.1,30.34,South,180,2.0,4.0,60,0.00,,,0.00,Wunderground v.1.15,2013-01-19 01:26:00,
2013-01-18 20:36:00,37.6,25.0,30.34,South,182,2.0,3.0,60,0.00,,,0.00,Wunderground v.1.15,2013-01-19 01:36:00,
2013-01-18 20:47:00,37.5,24.9,30.34,South,182,0.0,3.0,60,0.00,,,0.00,Wunderground v.1.15,2013-01-19 01:47:00,
2013-01-18 20:56:00,36.8,25.0,30.34,South,182,1.0,2.0,62,0.00,,,0.00,Wunderground v.1.15,2013-01-19 01:56:00,
2013-01-18 21:01:00,36.9,24.7,30.33,South,181,2.0,11.0,61,0.00,,,0.00,Wunderground v.1.15,2013-01-19 02:01:00,
2013-01-18 21:11:00,36.5,24.7,30.33,South,178,3.0,3.0,62,0.00,,,0.00,Wunderground v.1.15,2013-01-19 02:11:00,
2013-01-18 21:16:00,36.2,24.8,30.33,South,178,2.0,11.0,63,0.00,,,0.00,Wunderground v.1.15,2013-01-19 02:16:00,
2013-01-18 21:26:00,36.4,24.6,30.33,South,178,2.0,11.0,62,0.00,,,0.00,Wunderground v.1.15,2013-01-19 02:26:00,
2013-01-18 21:36:00,36.1,24.3,30.33,South,180,3.0,11.0,62,0.00,,,0.00,Wunderground v.1.15,2013-01-19 02:36:00,
2013-01-18 21:41:00,36.2,24.8,30.33,South,179,3.0,3.0,63,0.00,,,0.00,Wunderground v.1.15,2013-01-19 02:41:00,
2013-01-18 21:51:00,36.1,24.7,30.33,South,184,3.0,11.0,63,0.00,,,0.00,Wunderground v.1.15,2013-01-19 02:51:00,
2013-01-18 21:56:00,36.4,25.0,30.33,South,184,3.0,11.0,63,0.00,,,0.00,Wunderground v.1.15,2013-01-19 02:56:00,
2013-01-18 22:06:00,36.8,25.0,30.32,South,191,4.0,11.0,62,0.00,,,0.00,Wunderground v.1.15,2013-01-19 03:06:00,
2013-01-18 22:11:00,36.9,25.1,30.32,South,191,4.0,4.0,62,0.00,,,0.00,Wunderground v.1.15,2013-01-19 03:11:00,
2013-01-18 22:21:00,37.1,25.3,30.32,SSW,204,4.0,6.0,62,0.00,,,0.00,Wunderground v.1.15,2013-01-19 03:21:00,
2013-01-18 22:26:00,37.2,25.4,30.32,SSW,201,5.0,6.0,62,0.00,,,0.00,Wunderground v.1.15,2013-01-19 03:26:00,
2013-01-18 22:36:00,37.5,25.7,30.31,SSW,201,6.0,7.0,62,0.00,,,0.00,Wunderground v.1.15,2013-01-19 03:36:00,
2013-01-18 22:46:00,37.9,26.0,30.31,SSW,205,6.0,9.0,62,0.00,,,0.00,Wunderground v.1.15,2013-01-19 03:46:00,
2013-01-18 22:56:00,38.1,26.2,30.31,SSW,205,7.0,7.0,62,0.00,,,0.00,Wunderground v.1.15,2013-01-19 03:56:00,
2013-01-18 23:07:00,38.1,26.2,30.31,SSW,204,6.0,7.0,62,0.00,,,0.00,Wunderground v.1.15,2013-01-19 04:07:00,
2013-01-18 23:12:00,38.1,25.8,30.31,SSW,198,6.0,6.0,61,0.00,,,0.00,Wunderground v.1.15,2013-01-19 04:12:00,
2013-01-18 23:21:00,37.9,25.6,30.30,SSW,200,5.0,7.0,61,0.00,,,0.00,Wunderground v.1.15,2013-01-19 04:21:00,
2013-01-18 23:32:00,38.6,25.9,30.30,SSW,204,5.0,7.0,60,0.00,,,0.00,Wunderground v.1.15,2013-01-19 04:32:00,
2013-01-18 23:41:00,38.6,25.5,30.30,SSW,204,5.0,7.0,59,0.00,,,0.00,Wunderground v.1.15,2013-01-19 04:41:00,
2013-01-18 23:51:00,38.2,25.5,30.30,South,187,5.0,5.0,60,0.00,,,0.00,Wunderground v.1.15,2013-01-19 04:51:00,